Time,TemperatureF,DewpointF,PressureIn,WindDirection,WindDirectionDegrees,WindSpeedMPH,WindSpeedGustMPH,Humidity,HourlyPrecipIn,Conditions,Clouds,dailyrainin,SoftwareType,DateUTC
2013-09-19 00:14:00,62.6,58.0,29.94,SE,143,0.0,3.0,85,0.00,,,0.00,weatherlink.com 1.10,2013-09-19 04:14:00,
2013-09-19 00:29:00,62.8,58.0,29.94,ESE,113,0.0,3.0,84,0.00,,,0.00,weatherlink.com 1.10,2013-09-19 04:29:00,
2013-09-19 00:44:00,62.8,58.0,29.94,SSE,163,1.0,1.0,84,0.00,,,0.00,weatherlink.com 1.10,2013-09-19 04:44:00,
2013-09-19 00:59:00,62.6,58.0,29.94,ESE,120,0.0,1.0,84,0.00,,,0.00,weatherlink.com 1.10,2013-09-19 04:59:00,
2013-09-19 01:14:00,62.5,58.0,29.93,ESE,105,1.0,2.0,85,0.00,,,0.00,weatherlink.com 1.10,2013-09-19 05:14:00,
2013-09-19 01:29:00,62.4,58.0,29.93,ESE,117,1.0,2.0,85,0.00,,,0.00,weatherlink.com 1.10,2013-09-19 05:29:00,
2013-09-19 01:45:00,62.2,58.0,29.93,ESE,120,1.0,2.0,85,0.00,,,0.00,weatherlink.com 1.10,2013-09-19 05:45:00,
2013-09-19 02:00:00,62.0,58.0,29.93,SE,139,0.0,0.0,86,0.00,,,0.00,weatherlink.com 1.10,2013-09-19 06:00:00,
2013-09-19 02:15:00,61.6,57.0,29.93,SE,139,0.0,0.0,86,0.00,,,0.00,weatherlink.com 1.10,2013-09-19 06:15:00,
2013-09-19 02:30:00,61.6,57.0,29.93,East,98,0.0,3.0,86,0.00,,,0.00,weatherlink.com 1.10,2013-09-19 06:30:00,
2013-09-19 02:45:00,60.6,57.0,29.93,East,99,0.0,1.0,88,0.00,,,0.00,weatherlink.com 1.10,2013-09-19 06:45:00,
2013-09-19 03:00:00,59.7,57.0,29.92,ESE,123,0.0,1.0,90,0.00,,,0.00,weatherlink.com 1.10,2013-09-19 07:00:00,
2013-09-19 03:15:00,59.5,57.0,29.92,ESE,120,0.0,1.0,91,0.00,,,0.00,weatherlink.com 1.10,2013-09-19 07:15:00,
2013-09-19 03:30:00,59.5,57.0,29.91,East,101,0.0,0.0,90,0.00,,,0.00,weatherlink.com 1.10,2013-09-19 07:30:00,
2013-09-19 03:45:00,59.5,57.0,29.90,East,101,0.0,1.0,90,0.00,,,0.00,weatherlink.com 1.10,2013-09-19 07:45:00,
2013-09-19 04:00:00,58.8,56.0,29.90,East,101,0.0,0.0,91,0.00,,,0.00,weatherlink.com 1.10,2013-09-19 08:00:00,
2013-09-19 04:15:00,57.9,55.0,29.91,East,99,0.0,0.0,91,0.00,,,0.00,weatherlink.com 1.10,2013-09-19 08:15:00,
2013-09-19 04:30:00,57.1,55.0,29.90,East,98,0.0,0.0,92,0.00,,,0.00,weatherlink.com 1.10,2013-09-19 08:30:00,
2013-09-19 04:45:00,57.0,55.0,29.90,ESE,103,1.0,2.0,92,0.00,,,0.00,weatherlink.com 1.10,2013-09-19 08:45:00,
2013-09-19 05:00:00,57.9,55.0,29.91,ESE,102,0.0,1.0,91,0.00,,,0.00,weatherlink.com 1.10,2013-09-19 09:00:00,
2013-09-19 05:15:00,57.6,55.0,29.91,ESE,103,0.0,0.0,91,0.00,,,0.00,weatherlink.com 1.10,2013-09-19 09:15:00,
2013-09-19 05:30:00,57.3,55.0,29.91,ESE,103,0.0,0.0,92,0.00,,,0.00,weatherlink.com 1.10,2013-09-19 09:30:00,
2013-09-19 05:45:00,57.6,55.0,29.90,ESE,102,0.0,1.0,92,0.00,,,0.00,weatherlink.com 1.10,2013-09-19 09:45:00,
2013-09-19 06:00:00,57.7,55.0,29.91,ESE,106,0.0,1.0,92,0.00,,,0.00,weatherlink.com 1.10,2013-09-19 10:00:00,
2013-09-19 06:15:00,58.4,56.0,29.90,ESE,110,0.0,2.0,91,0.00,,,0.00,weatherlink.com 1.10,2013-09-19 10:15:00,
2013-09-19 06:30:00,58.8,56.0,29.91,ESE,113,0.0,1.0,90,0.00,,,0.00,weatherlink.com 1.10,2013-09-19 10:30:00,
2013-09-19 06:45:00,59.3,56.0,29.91,East,97,0.0,2.0,90,0.00,,,0.00,weatherlink.com 1.10,2013-09-19 10:45:00,
2013-09-19 07:00:00,59.7,57.0,29.90,East,101,0.0,1.0,89,0.00,,,0.00,weatherlink.com 1.10,2013-09-19 11:00:00,
2013-09-19 07:15:00,58.8,56.0,29.90,SE,146,1.0,2.0,90,0.00,,,0.00,weatherlink.com 1.10,2013-09-19 11:15:00,
2013-09-19 07:30:00,58.1,56.0,29.91,East,93,0.0,1.0,91,0.00,,,0.00,weatherlink.com 1.10,2013-09-19 11:30:00,
2013-09-19 07:45:00,58.0,56.0,29.91,SE,128,0.0,2.0,92,0.00,,,0.00,weatherlink.com 1.10,2013-09-19 11:45:00,
2013-09-19 08:00:00,58.4,56.0,29.91,ESE,108,0.0,1.0,92,0.00,,,0.00,weatherlink.com 1.10,2013-09-19 12:00:00,
2013-09-19 08:15:00,58.7,56.0,29.91,ESE,105,0.0,1.0,92,0.00,,,0.00,weatherlink.com 1.10,2013-09-19 12:15:00,
2013-09-19 08:30:00,59.4,57.0,29.90,East,90,1.0,4.0,92,0.00,,,0.00,weatherlink.com 1.10,2013-09-19 12:30:00,
2013-09-19 08:45:00,60.3,58.0,29.90,SE,125,0.0,1.0,91,0.00,,,0.00,weatherlink.com 1.10,2013-09-19 12:45:00,
2013-09-19 09:00:00,61.2,59.0,29.91,SW,221,0.0,2.0,91,0.00,,,0.00,weatherlink.com 1.10,2013-09-19 13:00:00,
2013-09-19 09:15:00,62.7,60.0,29.91,South,191,2.0,4.0,90,0.00,,,0.00,weatherlink.com 1.10,2013-09-19 13:15:00,
2013-09-19 09:30:00,65.0,61.0,29.90,South,183,0.0,5.0,87,0.00,,,0.00,weatherlink.com 1.10,2013-09-19 13:30:00,
2013-09-19 09:45:00,66.7,62.0,29.90,South,191,0.0,4.0,84,0.00,,,0.00,weatherlink.com 1.10,2013-09-19 13:45:00,
2013-09-19 10:00:00,67.9,62.0,29.89,NE,51,0.0,3.0,82,0.00,,,0.00,weatherlink.com 1.10,2013-09-19 14:00:00,
2013-09-19 10:15:00,68.8,63.0,29.89,ESE,105,4.0,4.0,82,0.00,,,0.00,weatherlink.com 1.10,2013-09-19 14:15:00,
2013-09-19 10:30:00,68.7,63.0,29.89,ESE,116,4.0,4.0,82,0.00,,,0.00,weatherlink.com 1.10,2013-09-19 14:30:00,
2013-09-19 10:45:00,69.5,63.0,29.89,NE,40,3.0,7.0,81,0.00,,,0.00,weatherlink.com 1.10,2013-09-19 14:45:00,
2013-09-19 11:01:00,69.6,64.0,29.89,ESE,122,3.0,6.0,82,0.00,,,0.00,weatherlink.com 1.10,2013-09-19 15:01:00,
2013-09-19 11:16:00,70.1,63.0,29.90,ESE,108,7.0,7.0,79,0.00,,,0.00,weatherlink.com 1.10,2013-09-19 15:16:00,
2013-09-19 11:31:00,70.0,63.0,29.89,ESE,104,4.0,7.0,78,0.00,,,0.00,weatherlink.com 1.10,2013-09-19 15:31:00,
2013-09-19 11:46:00,70.9,64.0,29.89,SE,133,1.0,6.0,78,0.00,,,0.00,weatherlink.com 1.10,2013-09-19 15:46:00,
2013-09-19 12:01:00,70.9,63.0,29.90,SSE,168,3.0,9.0,77,0.00,,,0.00,weatherlink.com 1.10,2013-09-19 16:01:00,
2013-09-19 12:16:00,70.3,63.0,29.89,ESE,122,6.0,12.0,78,0.00,,,0.00,weatherlink.com 1.10,2013-09-19 16:16:00,
2013-09-19 12:31:00,70.0,64.0,29.89,ESE,115,8.0,9.0,80,0.00,,,0.00,weatherlink.com 1.10,2013-09-19 16:31:00,
2013-09-19 12:46:00,70.1,64.0,29.89,SE,134,5.0,10.0,80,0.00,,,0.00,weatherlink.com 1.10,2013-09-19 16:46:00,
2013-09-19 13:01:00,70.8,63.0,29.89,SE,132,4.0,9.0,77,0.00,,,0.00,weatherlink.com 1.10,2013-09-19 17:01:00,
2013-09-19 13:16:00,71.7,64.0,29.88,SE,131,4.0,8.0,77,0.00,,,0.00,weatherlink.com 1.10,2013-09-19 17:16:00,
2013-09-19 13:31:00,71.8,63.0,29.87,SE,128,4.0,9.0,74,0.00,,,0.00,weatherlink.com 1.10,2013-09-19 17:31:00,
2013-09-19 13:46:00,72.5,63.0,29.87,SE,135,4.0,10.0,73,0.00,,,0.00,weatherlink.com 1.10,2013-09-19 17:46:00,
2013-09-19 14:01:00,73.8,65.0,29.86,SE,144,4.0,8.0,73,0.00,,,0.00,weatherlink.com 1.10,2013-09-19 18:01:00,
2013-09-19 14:16:00,74.3,64.0,29.86,East,100,4.0,9.0,70,0.00,,,0.00,weatherlink.com 1.10,2013-09-19 18:16:00,
2013-09-19 14:31:00,75.1,64.0,29.85,ESE,110,6.0,9.0,68,0.00,,,0.00,weatherlink.com 1.10,2013-09-19 18:31:00,
2013-09-19 14:46:00,75.4,64.0,29.85,East,82,4.0,8.0,67,0.00,,,0.00,weatherlink.com 1.10,2013-09-19 18:46:00,
2013-09-19 15:01:00,75.3,64.0,29.85,East,93,4.0,9.0,68,0.00,,,0.00,weatherlink.com 1.10,2013-09-19 19:01:00,
2013-09-19 15:16:00,75.2,64.0,29.85,East,94,6.0,9.0,69,0.00,,,0.00,weatherlink.com 1.10,2013-09-19 19:16:00,
2013-09-19 15:31:00,75.0,64.0,29.85,South,172,6.0,9.0,69,0.00,,,0.00,weatherlink.com 1.10,2013-09-19 19:31:00,
2013-09-19 15:46:00,75.1,65.0,29.85,SE,126,4.0,9.0,70,0.00,,,0.00,weatherlink.com 1.10,2013-09-19 19:46:00,
2013-09-19 16:01:00,74.4,65.0,29.85,SE,142,4.0,9.0,73,0.00,,,0.00,weatherlink.com 1.10,2013-09-19 20:01:00,
2013-09-19 16:16:00,73.5,65.0,29.84,East,93,7.0,8.0,74,0.00,,,0.00,weatherlink.com 1.10,2013-09-19 20:16:00,
2013-09-19 16:31:00,72.9,65.0,29.83,SE,129,3.0,8.0,75,0.00,,,0.00,weatherlink.com 1.10,2013-09-19 20:31:00,
2013-09-19 16:46:00,72.4,64.0,29.82,ESE,113,3.0,8.0,76,0.00,,,0.00,weatherlink.com 1.10,2013-09-19 20:46:00,
2013-09-19 17:01:00,72.2,65.0,29.82,East,94,3.0,6.0,77,0.00,,,0.00,weatherlink.com 1.10,2013-09-19 21:01:00,
2013-09-19 17:16:00,71.3,64.0,29.82,ENE,77,7.0,9.0,77,0.00,,,0.00,weatherlink.com 1.10,2013-09-19 21:16:00,
2013-09-19 17:31:00,70.9,64.0,29.81,ESE,111,3.0,6.0,79,0.00,,,0.00,weatherlink.com 1.10,2013-09-19 21:31:00,
2013-09-19 17:46:00,71.0,64.0,29.81,ESE,120,6.0,9.0,79,0.00,,,0.00,weatherlink.com 1.10,2013-09-19 21:46:00,
2013-09-19 18:01:00,70.3,64.0,29.80,East,88,6.0,10.0,81,0.00,,,0.00,weatherlink.com 1.10,2013-09-19 22:01:00,
2013-09-19 18:16:00,69.4,64.0,29.80,East,95,6.0,9.0,84,0.00,,,0.00,weatherlink.com 1.10,2013-09-19 22:16:00,
2013-09-19 18:31:00,69.2,64.0,29.80,East,88,3.0,9.0,84,0.00,,,0.00,weatherlink.com 1.10,2013-09-19 22:31:00,
2013-09-19 18:46:00,69.2,65.0,29.80,ESE,105,6.0,9.0,85,0.00,,,0.00,weatherlink.com 1.10,2013-09-19 22:46:00,
2013-09-19 19:01:00,68.6,64.0,29.80,ESE,111,4.0,5.0,86,0.00,,,0.00,weatherlink.com 1.10,2013-09-19 23:01:00,
2013-09-19 19:16:00,67.1,63.0,29.80,East,88,1.0,8.0,87,0.00,,,0.00,weatherlink.com 1.10,2013-09-19 23:16:00,
2013-09-19 19:31:00,66.3,63.0,29.80,ESE,113,4.0,6.0,88,0.00,,,0.00,weatherlink.com 1.10,2013-09-19 23:31:00,
2013-09-19 19:46:00,65.7,62.0,29.79,East,87,2.0,5.0,89,0.00,,,0.00,weatherlink.com 1.10,2013-09-19 23:46:00,
2013-09-19 20:02:00,65.1,62.0,29.79,ENE,65,3.0,4.0,90,0.00,,,0.00,weatherlink.com 1.10,2013-09-20 00:02:00,
2013-09-19 20:17:00,64.8,62.0,29.79,East,85,2.0,5.0,91,0.00,,,0.00,weatherlink.com 1.10,2013-09-20 00:17:00,
2013-09-19 20:32:00,64.6,62.0,29.79,East,79,5.0,6.0,91,0.00,,,0.00,weatherlink.com 1.10,2013-09-20 00:32:00,
2013-09-19 20:47:00,64.6,62.0,29.79,East,95,3.0,4.0,91,0.00,,,0.00,weatherlink.com 1.10,2013-09-20 00:47:00,
2013-09-19 21:02:00,64.8,62.0,29.79,ESE,123,2.0,4.0,91,0.00,,,0.00,weatherlink.com 1.10,2013-09-20 01:02:00,
2013-09-19 21:17:00,64.9,62.0,29.80,East,87,2.0,4.0,91,0.00,,,0.00,weatherlink.com 1.10,2013-09-20 01:17:00,
2013-09-19 21:32:00,65.0,62.0,29.80,East,101,2.0,3.0,91,0.00,,,0.00,weatherlink.com 1.10,2013-09-20 01:32:00,
2013-09-19 21:47:00,65.0,62.0,29.80,East,94,1.0,3.0,91,0.00,,,0.00,weatherlink.com 1.10,2013-09-20 01:47:00,
2013-09-19 22:02:00,66.2,64.0,29.79,SE,146,3.0,4.0,91,0.00,,,0.00,weatherlink.com 1.10,2013-09-20 02:02:00,
2013-09-19 22:17:00,67.6,65.0,29.78,ENE,74,4.0,5.0,91,0.00,,,0.00,weatherlink.com 1.10,2013-09-20 02:17:00,
2013-09-19 22:32:00,67.9,65.0,29.77,ESE,107,2.0,7.0,91,0.00,,,0.00,weatherlink.com 1.10,2013-09-20 02:32:00,
2013-09-19 22:47:00,68.4,65.0,29.76,ESE,105,4.0,6.0,90,0.00,,,0.00,weatherlink.com 1.10,2013-09-20 02:47:00,
2013-09-19 23:02:00,68.6,66.0,29.77,SE,134,1.0,5.0,90,0.00,,,0.00,weatherlink.com 1.10,2013-09-20 03:02:00,
2013-09-19 23:17:00,68.8,66.0,29.77,ESE,106,3.0,8.0,90,0.00,,,0.00,weatherlink.com 1.10,2013-09-20 03:17:00,
2013-09-19 23:32:00,68.8,66.0,29.77,ESE,117,4.0,9.0,90,0.00,,,0.00,weatherlink.com 1.10,2013-09-20 03:32:00,
2013-09-19 23:47:00,68.6,66.0,29.76,SE,143,4.0,8.0,90,0.00,,,0.00,weatherlink.com 1.10,2013-09-20 03:47:00,